Time;durP1;ratioP1;P1;durP2;ratioP2;P2;SDS_P1;SDS_P2;PMS_P1;PMS_P2;Temp;Humidity;BMP_temperature;BMP_pressure;BME280_temperature;BME280_humidity;BME280_pressure;Samples;Min_cycle;Max_cycle;Signal;HPM_P1;HPM_P2
2022/08/06 00:02:24;;;;;;;11.83;11.23;;;;;;;16.65;100.00;102752.69;2009593;71;33296;-73
2022/08/06 00:08:09;;;;;;;12.17;11.53;;;;;;;16.32;100.00;102749.81;2004117;71;32836;-75
2022/08/06 00:13:55;;;;;;;12.10;11.50;;;;;;;16.16;100.00;102756.52;2018675;71;33484;-74
2022/08/06 00:19:39;;;;;;;12.37;11.67;;;;;;;15.95;100.00;102758.98;2016836;71;33334;-73
2022/08/06 00:25:25;;;;;;;12.67;11.97;;;;;;;16.14;100.00;102762.11;2012954;71;32946;-75
2022/08/06 00:31:10;;;;;;;13.30;12.60;;;;;;;15.70;100.00;102773.70;2014859;71;32817;-75
2022/08/06 00:36:55;;;;;;;13.70;12.90;;;;;;;15.77;100.00;102770.12;1997191;71;33368;-72
2022/08/06 00:42:40;;;;;;;14.47;13.60;;;;;;;15.57;100.00;102781.78;1991558;71;32824;-76
2022/08/06 00:48:26;;;;;;;14.10;13.23;;;;;;;15.53;100.00;102773.09;2018461;71;32839;-73
2022/08/06 00:54:11;;;;;;;14.10;13.20;;;;;;;15.37;100.00;102776.86;2006212;71;32865;-73
2022/08/06 00:59:55;;;;;;;14.93;14.03;;;;;;;15.49;100.00;102778.33;2014905;71;32917;-75
2022/08/06 01:05:40;;;;;;;14.43;13.53;;;;;;;15.31;100.00;102787.76;1998538;71;32841;-75
2022/08/06 01:11:25;;;;;;;14.53;13.73;;;;;;;15.24;100.00;102787.98;2006389;71;33281;-75
2022/08/06 01:17:15;;;;;;;14.77;13.87;;;;;;;15.10;100.00;102789.58;2016633;71;32919;-74
2022/08/06 01:19:55;;;;;;;15.63;14.53;;;;;;;15.15;100.00;102793.78;1972162;72;26309;-75
2022/08/06 01:26:35;;;;;;;15.47;14.57;;;;;;;15.19;100.00;102799.14;2011293;71;32984;-73
2022/08/06 01:32:25;;;;;;;16.30;15.20;;;;;;;15.00;100.00;102799.28;2014933;71;32913;-74
2022/08/06 01:38:15;;;;;;;16.03;14.93;;;;;;;14.86;100.00;102808.67;2004143;71;32881;-74
2022/08/06 01:44:02;;;;;;;16.97;15.87;;;;;;;14.80;100.00;102802.77;2014899;71;33374;-75
2022/08/06 01:49:51;;;;;;;16.87;15.77;;;;;;;14.65;100.00;102801.20;1964611;72;33056;-73
2022/08/06 01:55:40;;;;;;;17.10;16.00;;;;;;;14.57;100.00;102798.89;2015191;71;33346;-74
2022/08/06 02:01:31;;;;;;;18.30;17.00;;;;;;;14.63;100.00;102809.03;2010186;71;32871;-75
2022/08/06 02:07:19;;;;;;;19.00;17.70;;;;;;;14.53;100.00;102804.18;2009666;71;32857;-75
2022/08/06 02:13:06;;;;;;;18.50;17.30;;;;;;;14.50;100.00;102803.28;2006361;71;33381;-74
2022/08/06 02:18:54;;;;;;;19.07;17.90;;;;;;;14.29;100.00;102802.75;2011880;71;34442;-74
2022/08/06 02:24:41;;;;;;;19.27;18.10;;;;;;;14.42;100.00;102809.91;2005546;71;33380;-74
2022/08/06 02:30:29;;;;;;;20.10;18.90;;;;;;;14.64;100.00;102800.06;1995212;71;32852;-75
2022/08/06 02:36:17;;;;;;;19.93;18.73;;;;;;;14.53;100.00;102791.59;2009905;71;32775;-73
2022/08/06 02:38:51;;;;;;;20.93;19.63;;;;;;;14.56;100.00;102793.85;1958817;72;26193;-74
2022/08/06 02:44:42;;;;;;;22.30;20.80;;;;;;;14.42;100.00;102798.17;2013148;71;32845;-75
2022/08/06 02:50:31;;;;;;;20.00;18.70;;;;;;;14.34;100.00;102797.77;2005851;71;32889;-76
2022/08/06 02:56:19;;;;;;;22.93;21.57;;;;;;;14.22;100.00;102798.47;2003992;71;32834;-73
2022/08/06 03:02:07;;;;;;;23.87;22.17;;;;;;;13.99;100.00;102802.42;2008187;71;32834;-74
2022/08/06 03:07:56;;;;;;;21.63;20.23;;;;;;;14.38;100.00;102793.37;2004659;71;33424;-72
2022/08/06 03:13:45;;;;;;;22.73;21.20;;;;;;;14.62;100.00;102796.70;2008659;71;32827;-74
2022/08/06 03:19:38;;;;;;;23.30;21.90;;;;;;;14.15;100.00;102801.48;2007984;71;32818;-75
2022/08/06 03:25:27;;;;;;;23.40;22.07;;;;;;;14.49;100.00;102804.42;2015143;71;32907;-75
2022/08/06 03:31:14;;;;;;;25.47;23.67;;;;;;;14.06;100.00;102815.63;2011718;71;32839;-73
2022/08/06 03:37:01;;;;;;;27.80;25.90;;;;;;;13.93;100.00;102811.83;2008278;71;33308;-73
2022/08/06 03:42:53;;;;;;;30.33;28.20;;;;;;;13.81;100.00;102815.31;2006458;71;33256;-73
2022/08/06 03:48:41;;;;;;;27.83;25.90;;;;;;;14.33;100.00;102812.33;2009734;71;33329;-74
2022/08/06 03:54:31;;;;;;;31.83;29.83;;;;;;;13.88;100.00;102821.54;2007670;71;32800;-74
2022/08/06 04:00:21;;;;;;;30.80;28.70;;;;;;;13.89;100.00;102824.09;2003480;71;39668;-74
2022/08/06 04:09:16;;;;;;;33.50;31.40;;;;;;;14.10;100.00;102821.84;2061092;69;32661;-74
2022/08/06 04:11:48;;;;;;;34.83;32.60;;;;;;;13.58;100.00;102829.80;1938764;73;26682;-74
2022/08/06 04:14:18;;;;;;;36.57;34.07;;;;;;;13.38;100.00;102830.90;1937773;73;26211;-74
2022/08/06 04:16:51;;;;;;;38.87;36.37;;;;;;;13.39;100.00;102835.94;1966253;73;26397;-74
2022/08/06 04:19:23;;;;;;;39.13;36.63;;;;;;;13.26;100.00;102834.34;1937825;73;26316;-74
2022/08/06 04:21:53;;;;;;;40.23;37.43;;;;;;;13.23;100.00;102829.25;1934749;73;26266;-74
2022/08/06 04:24:24;;;;;;;39.47;36.80;;;;;;;13.12;100.00;102837.17;1934582;73;26663;-74
2022/08/06 04:26:58;;;;;;;41.33;38.50;;;;;;;13.18;100.00;102838.93;1937677;74;26196;-74
2022/08/06 04:29:30;;;;;;;40.00;37.20;;;;;;;13.20;100.00;102840.38;1935783;73;26237;-74
2022/08/06 04:32:02;;;;;;;41.10;38.23;;;;;;;13.24;100.00;102835.13;1941858;73;26745;-74
2022/08/06 04:34:34;;;;;;;41.43;38.70;;;;;;;13.12;100.00;102841.36;1939195;73;26257;-74
2022/08/06 04:37:05;;;;;;;43.10;40.20;;;;;;;13.37;100.00;102840.91;1937823;73;26228;-74
2022/08/06 04:39:36;;;;;;;44.83;42.03;;;;;;;13.26;100.00;102841.87;1941492;73;26220;-74
2022/08/06 04:42:08;;;;;;;48.00;44.90;;;;;;;12.98;100.00;102839.42;1939758;73;26184;-74
2022/08/06 04:44:41;;;;;;;45.40;42.60;;;;;;;12.89;100.00;102847.90;1938791;73;26210;-74
2022/08/06 04:47:13;;;;;;;51.13;47.93;;;;;;;12.92;100.00;102843.78;1935119;73;26271;-74
2022/08/06 04:53:10;;;;;;;53.80;49.93;;;;;;;13.07;100.00;102851.85;2011064;71;32833;-73
2022/08/06 04:58:56;;;;;;;54.60;51.20;;;;;;;13.13;100.00;102847.24;2016691;71;32821;-73
2022/08/06 05:04:43;;;;;;;55.77;52.37;;;;;;;12.91;100.00;102847.66;1991503;71;32763;-72
2022/08/06 05:10:33;;;;;;;56.03;52.50;;;;;;;12.92;100.00;102845.99;2011088;71;33294;-73
2022/08/06 05:16:20;;;;;;;63.08;59.23;;;;;;;12.94;100.00;102851.33;1998210;71;27927;-72
2022/08/06 05:22:10;;;;;;;61.50;57.73;;;;;;;12.95;100.00;102859.45;1998607;71;32981;-73
2022/08/06 05:27:55;;;;;;;60.83;57.13;;;;;;;13.03;100.00;102866.56;2011173;71;32859;-74
2022/08/06 05:33:42;;;;;;;61.13;57.37;;;;;;;13.15;100.00;102873.78;2008187;71;32849;-73
2022/08/06 05:39:28;;;;;;;59.27;55.53;;;;;;;13.27;100.00;102878.42;2000682;70;32743;-74
2022/08/06 05:45:15;;;;;;;63.13;59.30;;;;;;;13.26;100.00;102887.92;2011567;71;33449;-74
2022/08/06 05:51:04;;;;;;;60.07;56.47;;;;;;;13.34;100.00;102893.92;2013198;71;33362;-74
2022/08/06 05:56:57;;;;;;;57.40;53.67;;;;;;;13.92;100.00;102885.57;2014956;71;33494;-74
2022/08/06 05:59:30;;;;;;;57.00;53.30;;;;;;;13.62;100.00;102895.75;1978314;72;26212;-74
2022/08/06 06:05:16;;;;;;;55.27;52.03;;;;;;;13.84;100.00;102898.59;2018533;71;32949;-74
2022/08/06 06:11:03;;;;;;;54.90;51.37;;;;;;;13.91;100.00;102895.90;1991637;71;33304;-73
2022/08/06 06:20:00;;;;;;;54.07;50.73;;;;;;;14.08;100.00;102898.09;2060901;69;33097;-72
2022/08/06 06:22:35;;;;;;;55.70;52.20;;;;;;;13.95;100.00;102907.41;2020688;70;26211;-72
2022/08/06 06:25:10;;;;;;;54.90;51.70;;;;;;;14.03;100.00;102907.80;1943607;73;26327;-72
2022/08/06 06:27:46;;;;;;;53.87;50.67;;;;;;;14.21;100.00;102905.80;1968407;72;26777;-72
2022/08/06 06:30:21;;;;;;;49.53;46.53;;;;;;;14.25;100.00;102907.81;1932331;73;26330;-72
2022/08/06 06:32:56;;;;;;;48.83;45.67;;;;;;;14.34;100.00;102908.20;2016402;70;27005;-73
2022/08/06 06:35:31;;;;;;;49.90;46.57;;;;;;;14.42;100.00;102911.97;2014094;70;26739;-73
2022/08/06 06:38:08;;;;;;;51.33;48.10;;;;;;;14.43;100.00;102913.67;2034129;70;26225;-73
2022/08/06 06:40:46;;;;;;;51.00;47.93;;;;;;;14.39;100.00;102913.35;2016332;70;26200;-73
2022/08/06 06:43:21;;;;;;;50.23;47.17;;;;;;;14.26;100.00;102922.64;1935354;73;26204;-73
2022/08/06 06:45:57;;;;;;;48.00;45.20;;;;;;;14.41;100.00;102906.96;1934690;73;26272;-73
2022/08/06 06:51:47;;;;;;;49.90;46.87;;;;;;;14.56;100.00;102904.87;1994860;71;32839;-74
2022/08/06 06:57:39;;;;;;;53.57;50.37;;;;;;;14.45;100.00;102912.32;2011868;71;32758;-73
2022/08/06 07:03:28;;;;;;;46.53;43.60;;;;;;;14.76;100.00;102908.48;2015103;71;33353;-72
2022/08/06 07:09:17;;;;;;;47.97;45.17;;;;;;;15.05;100.00;102915.49;2002658;70;32765;-70
2022/08/06 07:15:05;;;;;;;42.37;39.77;;;;;;;15.21;100.00;102905.27;2009765;71;32996;-73
2022/08/06 07:20:54;;;;;;;39.67;37.23;;;;;;;15.40;100.00;102914.39;1998801;71;33311;-74
2022/08/06 07:26:42;;;;;;;41.30;38.60;;;;;;;15.39;100.00;102901.52;2018640;71;32827;-74
2022/08/06 07:32:29;;;;;;;37.30;34.70;;;;;;;15.56;100.00;102911.76;2016565;71;32905;-72
2022/08/06 07:38:17;;;;;;;35.03;32.47;;;;;;;15.89;100.00;102917.03;1996923;71;32746;-72
2022/08/06 07:44:06;;;;;;;32.43;30.23;;;;;;;16.10;100.00;102916.03;2006316;71;32747;-74
2022/08/06 07:49:56;;;;;;;29.60;27.50;;;;;;;16.83;100.00;102916.91;1978972;72;33021;-73
2022/08/06 07:55:42;;;;;;;28.40;26.50;;;;;;;16.93;100.00;102923.95;1997310;71;32839;-72
2022/08/06 08:01:28;;;;;;;26.67;24.97;;;;;;;17.26;100.00;102916.97;2002681;71;32754;-72
2022/08/06 08:07:14;;;;;;;27.90;26.00;;;;;;;17.88;100.00;102911.63;2018669;71;30954;-72
2022/08/06 08:13:00;;;;;;;26.93;25.27;;;;;;;18.37;100.00;102901.32;2012979;71;30864;-72
2022/08/06 08:18:45;;;;;;;23.07;21.37;;;;;;;18.99;100.00;102904.95;2000517;71;30967;-73
2022/08/06 08:24:32;;;;;;;22.43;21.03;;;;;;;19.12;100.00;102911.06;2008006;71;31386;-73
2022/08/06 08:30:17;;;;;;;19.83;18.63;;;;;;;19.09;100.00;102914.73;2013226;71;30980;-75
2022/08/06 08:36:03;;;;;;;20.17;18.53;;;;;;;19.64;100.00;102907.56;2018740;71;30912;-75
2022/08/06 08:41:50;;;;;;;19.33;17.93;;;;;;;20.06;100.00;102912.47;2006180;71;31468;-74
2022/08/06 08:47:41;;;;;;;17.93;16.73;;;;;;;20.14;100.00;102901.93;2016737;71;31412;-73
2022/08/06 08:53:36;;;;;;;17.70;16.07;;;;;;;20.11;100.00;102906.77;2016703;71;31091;-72
2022/08/06 08:59:23;;;;;;;16.57;15.37;;;;;;;20.36;100.00;102902.27;2000874;71;31361;-73
2022/08/06 09:05:10;;;;;;;15.70;14.80;;;;;;;20.77;100.00;102894.91;2002739;71;31384;-74
2022/08/06 09:10:58;;;;;;;16.20;15.10;;;;;;;20.76;100.00;102898.02;2006310;71;30826;-73
2022/08/06 09:16:43;;;;;;;17.00;15.50;;;;;;;20.85;100.00;102896.20;2005611;71;31055;-73
2022/08/06 09:22:29;;;;;;;16.43;15.33;;;;;;;20.92;100.00;102891.59;2013108;71;30903;-74
2022/08/06 09:28:17;;;;;;;16.83;15.37;;;;;;;21.07;100.00;102891.34;2010104;71;30896;-73
2022/08/06 09:34:07;;;;;;;16.10;15.00;;;;;;;21.20;100.00;102897.66;2008286;71;30843;-74
2022/08/06 09:39:59;;;;;;;15.73;14.77;;;;;;;21.07;100.00;102904.06;2013255;71;30979;-74
2022/08/06 09:45:57;;;;;;;15.77;14.77;;;;;;;21.18;100.00;102899.38;2005754;71;30911;-74
2022/08/06 09:51:41;;;;;;;15.13;14.03;;;;;;;21.23;100.00;102904.11;2017104;71;30995;-74
2022/08/06 09:57:30;;;;;;;15.20;14.23;;;;;;;21.34;100.00;102901.39;2009362;71;30964;-73
2022/08/06 09:59:59;;;;;;;14.70;13.70;;;;;;;;;;1975889;72;24178;-73
2022/08/06 10:05:45;;;;;;;15.13;14.23;;;;;;;21.31;100.00;102904.25;2010041;71;30839;-70
2022/08/06 10:11:37;;;;;;;14.30;12.77;;;;;;;21.50;100.00;102903.38;2000680;71;30842;-73
2022/08/06 10:17:23;;;;;;;14.87;13.33;;;;;;;21.40;100.00;102907.78;1995517;71;31397;-71
2022/08/06 10:23:22;;;;;;;14.10;13.10;;;;;;;21.53;100.00;102900.77;2004600;71;30857;-72
2022/08/06 10:29:08;;;;;;;14.50;13.40;;;;;;;21.61;100.00;102902.88;1995297;71;30830;-72
2022/08/06 10:34:57;;;;;;;14.50;13.50;;;;;;;21.66;100.00;102904.20;1998913;71;30839;-70
2022/08/06 10:40:43;;;;;;;15.30;14.30;;;;;;;21.51;100.00;102894.59;2004509;71;30825;-71
2022/08/06 10:46:31;;;;;;;14.77;13.40;;;;;;;21.72;100.00;102887.98;1995319;71;31328;-71
2022/08/06 10:52:15;;;;;;;15.07;13.90;;;;;;;21.69;100.00;102882.36;2006396;71;30892;-72
2022/08/06 10:58:03;;;;;;;14.73;13.73;;;;;;;21.73;100.00;102878.36;2002510;71;30904;-74
2022/08/06 11:04:04;;;;;;;15.77;13.93;;;;;;;21.92;100.00;102878.25;2011556;71;31679;-74
2022/08/06 11:10:04;;;;;;;15.90;13.50;;;;;;;21.27;100.00;102872.09;2000696;71;30886;-72
2022/08/06 11:15:58;;;;;;;15.00;13.80;;;;;;;21.62;100.00;102872.03;2004569;71;31402;-74
2022/08/06 11:21:45;;;;;;;13.87;12.90;;;;;;;21.80;100.00;102869.71;1995115;71;30910;-71
2022/08/06 11:27:56;;;;;;;14.07;13.15;;;;;;;22.05;100.00;102861.89;2015053;71;30948;-73
2022/08/06 11:34:06;;;;;;;14.80;13.80;;;;;;;22.10;100.00;102861.79;2015300;70;31428;-72
2022/08/06 11:40:11;;;;;;;15.13;14.03;;;;;;;22.07;100.00;102849.69;2015053;71;30971;-73
2022/08/06 11:46:30;;;;;;;12.88;12.18;;;;;;;22.19;100.00;102849.42;2007694;71;30997;-72
2022/08/06 11:52:28;;;;;;;12.73;11.93;;;;;;;22.23;100.00;102846.22;2046036;69;30572;-72
2022/08/06 11:55:03;;;;;;;12.57;11.80;;;;;;;22.14;100.00;102850.10;2018384;70;24222;-72
2022/08/06 12:00:59;;;;;;;13.40;12.57;;;;;;;22.25;100.00;102833.14;2002841;71;31348;-72
2022/08/06 12:03:34;;;;;;;12.80;12.03;;;;;;;22.23;100.00;102834.05;1977663;72;24632;-72
2022/08/06 12:12:45;;;;;;;13.53;12.80;;;;;;;22.36;100.00;102838.86;2060939;69;30620;-72
2022/08/06 12:18:52;;;;;;;13.62;12.82;;;;;;;22.41;100.00;102830.26;2008143;71;31302;-72
2022/08/06 12:24:38;;;;;;;12.65;11.80;;;;;;;22.46;100.00;102817.97;2016963;71;30895;-74
2022/08/06 12:30:24;;;;;;;13.13;12.30;;;;;;;22.45;100.00;102823.37;2016929;71;30915;-73
2022/08/06 12:36:14;;;;;;;13.33;12.50;;;;;;;22.62;100.00;102808.80;2014963;71;30892;-74
2022/08/06 12:42:00;;;;;;;13.40;12.57;;;;;;;22.66;100.00;102810.41;2011549;71;30889;-72
2022/08/06 12:47:49;;;;;;;13.40;12.70;;;;;;;22.65;100.00;102810.14;2009990;71;30831;-73
2022/08/06 12:53:33;;;;;;;13.43;12.63;;;;;;;22.69;100.00;102809.22;2016747;71;30958;-74
2022/08/06 12:59:17;;;;;;;18.67;17.48;;;;;;;22.52;100.00;102811.02;2018710;71;30894;-73
2022/08/06 13:05:07;;;;;;;15.78;14.55;;;;;;;22.50;100.00;102803.44;2007916;71;31450;-72
2022/08/06 13:10:54;;;;;;;13.78;12.78;;;;;;;22.62;100.00;102805.97;1998859;70;30888;-71
2022/08/06 13:16:50;;;;;;;14.30;13.50;;;;;;;22.75;100.00;102796.34;2002763;71;30823;-72
2022/08/06 13:22:50;;;;;;;14.00;13.00;;;;;;;22.80;100.00;102795.66;1995488;71;30892;-73
2022/08/06 13:28:33;;;;;;;13.93;13.13;;;;;;;22.75;100.00;102775.94;2004423;71;31023;-75
2022/08/06 13:34:17;;;;;;;13.50;12.63;;;;;;;22.82;100.00;102773.48;2015207;71;30894;-73
2022/08/06 13:40:09;;;;;;;13.20;12.50;;;;;;;22.91;100.00;102770.71;2013703;71;30839;-73
2022/08/06 13:46:08;;;;;;;13.80;12.75;;;;;;;23.05;100.00;102769.49;2006410;71;30943;-72
2022/08/06 13:51:54;;;;;;;13.32;12.60;;;;;;;23.01;100.00;102769.88;2000973;71;31387;-74
2022/08/06 13:57:38;;;;;;;13.38;12.68;;;;;;;22.94;100.00;102773.73;2013186;71;31383;-73
2022/08/06 14:03:23;;;;;;;13.18;12.47;;;;;;;22.94;100.00;102770.89;2014991;71;30987;-73
2022/08/06 14:09:08;;;;;;;13.05;12.25;;;;;;;23.08;99.12;102766.58;2013405;71;30994;-75
2022/08/06 14:14:53;;;;;;;13.43;12.55;;;;;;;23.19;96.78;102765.13;2009756;71;31461;-74
2022/08/06 14:20:38;;;;;;;12.70;11.97;;;;;;;23.04;96.69;102747.97;2008164;71;32941;-74
2022/08/06 14:26:21;;;;;;;13.65;12.75;;;;;;;23.07;89.50;102747.89;1999347;71;31427;-73
2022/08/06 14:32:07;;;;;;;13.18;12.43;;;;;;;23.22;96.42;102736.14;1995143;71;30835;-73
2022/08/06 14:37:53;;;;;;;13.65;12.58;;;;;;;23.23;99.92;102741.24;2016954;70;30954;-71
2022/08/06 14:52:30;;;;;;;12.43;11.83;;;;;;;23.37;91.26;102716.44;2037236;69;30553;-73
2022/08/06 14:58:14;;;;;;;13.00;12.30;;;;;;;23.27;86.12;102701.98;2002617;71;31420;-73
2022/08/06 15:04:00;;;;;;;12.75;11.95;;;;;;;23.33;83.58;102706.33;2009628;71;30843;-73
2022/08/06 15:09:45;;;;;;;12.82;12.23;;;;;;;23.41;86.71;102700.43;1999177;71;30842;-73
2022/08/06 15:15:28;;;;;;;13.40;12.70;;;;;;;23.31;86.87;102704.41;2000732;71;31502;-72
2022/08/06 15:21:12;;;;;;;13.38;12.68;;;;;;;23.25;87.74;102688.70;2017058;71;31396;-74
2022/08/06 15:26:55;;;;;;;13.05;12.25;;;;;;;23.41;89.70;102691.92;2011467;71;30909;-72
2022/08/06 15:32:40;;;;;;;13.22;12.53;;;;;;;23.40;86.04;102678.34;2008481;71;31381;-74
2022/08/06 15:38:25;;;;;;;12.58;11.97;;;;;;;23.36;82.83;102681.55;2018592;71;31003;-72
2022/08/06 15:44:01;;;;;;;13.08;12.33;;;;;;;23.46;88.66;102673.38;2059514;69;30534;-73
2022/08/06 15:46:32;;;;;;;12.93;12.20;;;;;;;23.41;83.43;102677.16;2015540;70;24157;-73
2022/08/06 15:49:05;;;;;;;11.93;11.30;;;;;;;23.39;87.88;102675.25;1989643;70;24187;-73
2022/08/06 15:54:49;;;;;;;13.03;12.33;;;;;;;23.45;81.49;102662.60;2016896;71;33968;-75
2022/08/06 16:00:33;;;;;;;13.18;12.28;;;;;;;23.62;92.96;102663.23;2011778;71;31404;-74
2022/08/06 16:06:19;;;;;;;12.78;11.90;;;;;;;23.47;85.53;102658.87;2004401;71;30824;-72
2022/08/06 16:12:03;;;;;;;12.43;11.73;;;;;;;23.53;85.48;102650.44;1941297;74;31595;-72
2022/08/06 16:17:46;;;;;;;12.88;12.07;;;;;;;23.49;81.63;102645.78;2016597;71;30971;-72
2022/08/06 16:23:32;;;;;;;13.18;12.47;;;;;;;23.50;96.25;102632.67;2008021;71;30834;-72
2022/08/06 16:29:20;;;;;;;12.67;11.90;;;;;;;23.57;98.60;102631.62;2010073;71;30907;-73
2022/08/06 16:35:08;;;;;;;12.20;11.60;;;;;;;23.49;88.40;102636.66;1997192;71;30811;-74
2022/08/06 16:40:54;;;;;;;12.60;11.90;;;;;;;23.46;87.37;102627.98;2009822;71;30956;-73
2022/08/06 16:46:41;;;;;;;11.70;11.10;;;;;;;23.28;86.44;102634.15;2002699;71;31379;-75
2022/08/06 16:52:24;;;;;;;12.37;11.78;;;;;;;23.29;90.67;102627.32;2015208;71;31544;-73
2022/08/06 16:58:07;;;;;;;14.63;13.70;;;;;;;23.41;100.00;102629.52;1995495;71;31312;-74
2022/08/06 17:03:51;;;;;;;13.32;12.63;;;;;;;23.42;99.53;102632.03;2015145;71;30870;-80
2022/08/06 17:09:35;;;;;;;12.40;11.60;;;;;;;23.25;92.21;102623.47;1998489;71;30889;-79
2022/08/06 17:15:20;;;;;;;12.25;11.55;;;;;;;23.21;88.64;102627.30;2007653;71;30986;-80
2022/08/06 17:21:04;;;;;;;12.47;11.70;;;;;;;23.17;88.88;102624.86;2015214;71;31372;-78
2022/08/06 17:26:49;;;;;;;12.45;11.68;;;;;;;23.18;89.21;102616.61;1997227;71;30826;-80
2022/08/06 17:32:36;;;;;;;12.00;11.30;;;;;;;23.11;92.60;102615.08;2010336;71;30824;-81
2022/08/06 17:38:20;;;;;;;12.23;11.63;;;;;;;23.12;89.27;102613.08;2017084;71;31498;-79
2022/08/06 17:44:03;;;;;;;12.82;11.95;;;;;;;22.97;91.81;102610.13;2014947;71;30961;-78
2022/08/06 17:52:58;;;;;;;12.25;11.45;;;;;;;22.99;95.13;102611.19;2049750;69;30640;-77
2022/08/06 17:55:28;;;;;;;12.03;11.30;;;;;;;23.03;97.93;102612.20;1936238;73;24165;-78
2022/08/06 17:58:05;;;;;;;11.60;11.00;;;;;;;23.05;93.07;102612.73;1933260;73;24230;-78
2022/08/06 18:03:50;;;;;;;11.33;10.72;;;;;;;23.02;94.20;102614.20;2013314;71;30931;-79
2022/08/06 18:09:34;;;;;;;11.90;11.10;;;;;;;22.88;90.09;102611.23;2014810;71;30871;-80
2022/08/06 18:15:18;;;;;;;11.38;10.78;;;;;;;22.73;88.01;102605.97;1994986;71;30981;-81
2022/08/06 18:21:02;;;;;;;11.10;10.40;;;;;;;22.77;91.46;102605.58;2016808;71;31398;-82
2022/08/06 18:26:45;;;;;;;10.65;10.05;;;;;;;22.69;90.09;102608.05;2016647;71;30875;-80
2022/08/06 18:32:29;;;;;;;10.93;10.32;;;;;;;22.56;90.43;102607.52;2005978;71;30887;-78
2022/08/06 18:38:12;;;;;;;11.28;10.68;;;;;;;22.39;94.85;102615.91;1998690;71;30938;-83
2022/08/06 18:43:57;;;;;;;11.00;10.28;;;;;;;22.38;92.44;102618.48;2016944;71;31016;-75
2022/08/06 18:49:41;;;;;;;10.85;10.23;;;;;;;22.33;95.76;102618.62;2009623;71;31363;-76
2022/08/06 18:55:25;;;;;;;10.95;10.40;;;;;;;22.10;100.00;102626.84;2010102;71;30806;-77
2022/08/06 19:01:12;;;;;;;10.85;10.35;;;;;;;21.88;100.00;102630.45;2000358;71;30927;-80
2022/08/06 19:06:55;;;;;;;10.58;10.08;;;;;;;21.93;100.00;102621.03;2018845;71;30869;-79
2022/08/06 19:12:41;;;;;;;10.88;10.48;;;;;;;21.71;100.00;102634.52;2016956;71;30934;-80
2022/08/06 19:18:26;;;;;;;11.20;10.60;;;;;;;21.41;100.00;102642.26;2006790;71;30873;-81
2022/08/06 19:24:09;;;;;;;11.13;10.53;;;;;;;21.26;100.00;102644.28;2015062;71;30870;-79
2022/08/06 19:29:54;;;;;;;11.20;10.68;;;;;;;21.20;100.00;102643.27;1992100;71;31311;-80
2022/08/06 19:35:37;;;;;;;11.50;10.70;;;;;;;21.09;100.00;102646.02;2016985;71;31389;-79
2022/08/06 19:41:21;;;;;;;11.40;10.73;;;;;;;20.31;100.00;102654.77;1995330;71;30885;-77
2022/08/06 19:47:07;;;;;;;11.63;11.07;;;;;;;19.95;100.00;102659.23;2000506;71;33429;-76
2022/08/06 19:52:50;;;;;;;11.60;11.10;;;;;;;19.63;100.00;102673.25;2008150;71;33287;-76
2022/08/06 19:58:33;;;;;;;11.50;10.80;;;;;;;19.49;100.00;102671.16;2014802;71;30880;-73
2022/08/06 20:04:17;;;;;;;11.50;10.67;;;;;;;19.42;100.00;102681.95;2018529;71;31004;-75
2022/08/06 20:10:01;;;;;;;11.13;10.63;;;;;;;19.42;100.00;102692.38;2004163;71;30826;-76
2022/08/06 20:15:46;;;;;;;11.73;10.97;;;;;;;19.26;100.00;102686.63;2005862;71;31427;-76
2022/08/06 20:21:30;;;;;;;11.30;10.70;;;;;;;19.42;100.00;102686.73;2006431;71;31318;-75
2022/08/06 20:27:13;;;;;;;11.53;10.80;;;;;;;19.14;100.00;102690.42;2016633;71;31465;-74
2022/08/06 20:32:59;;;;;;;11.20;10.60;;;;;;;19.13;100.00;102688.17;2000295;71;31399;-75
2022/08/06 20:38:44;;;;;;;11.20;10.43;;;;;;;19.07;100.00;102696.43;2018674;71;30870;-76
2022/08/06 20:44:33;;;;;;;11.50;10.67;;;;;;;19.08;100.00;102693.30;2007243;71;32915;-75
2022/08/06 20:53:25;;;;;;;11.40;10.80;;;;;;;18.88;100.00;102702.52;2061193;69;31017;-75
2022/08/06 20:59:10;;;;;;;11.50;10.57;;;;;;;18.86;100.00;102701.44;2016965;71;30962;-77
2022/08/06 21:04:53;;;;;;;11.30;10.60;;;;;;;18.65;100.00;102698.53;1997405;71;30960;-73
2022/08/06 21:10:38;;;;;;;11.80;11.13;;;;;;;18.73;100.00;102700.71;2000786;71;30821;-76
2022/08/06 21:16:24;;;;;;;12.60;11.70;;;;;;;18.75;100.00;102701.80;2014901;71;30882;-74
2022/08/06 21:22:09;;;;;;;11.50;10.90;;;;;;;18.58;100.00;102698.86;2015081;71;31361;-74
2022/08/06 21:27:52;;;;;;;11.70;10.90;;;;;;;18.49;100.00;102701.14;2009958;71;31437;-78
2022/08/06 21:33:38;;;;;;;12.37;11.57;;;;;;;18.47;100.00;102700.05;2015052;71;30935;-78
2022/08/06 21:39:21;;;;;;;11.73;11.03;;;;;;;18.34;100.00;102691.43;2005917;71;30940;-78
2022/08/06 21:45:05;;;;;;;12.27;11.40;;;;;;;18.19;100.00;102695.18;1991823;71;30924;-79
2022/08/06 21:50:48;;;;;;;12.57;11.77;;;;;;;17.98;100.00;102694.48;2015146;71;30902;-79
2022/08/06 21:56:34;;;;;;;11.63;11.00;;;;;;;17.96;100.00;102693.09;2008304;71;31435;-77
2022/08/06 22:02:17;;;;;;;14.10;12.90;;;;;;;17.79;100.00;102691.23;2011809;70;33315;-80
2022/08/06 22:08:01;;;;;;;12.83;11.93;;;;;;;17.69;100.00;102693.52;2008300;71;30838;-78
2022/08/06 22:13:44;;;;;;;13.87;12.97;;;;;;;17.46;100.00;102694.13;2016756;71;31077;-78
2022/08/06 22:19:29;;;;;;;13.70;12.90;;;;;;;17.56;100.00;102678.65;2014813;71;30899;-79
2022/08/06 22:25:13;;;;;;;14.43;13.37;;;;;;;17.54;100.00;102685.14;2011699;71;31397;-79
2022/08/06 22:30:59;;;;;;;16.50;15.50;;;;;;;17.17;100.00;102682.16;2007961;71;30887;-77
2022/08/06 22:36:42;;;;;;;18.07;16.97;;;;;;;16.73;100.00;102686.73;2015026;71;30906;-77
2022/08/06 22:42:26;;;;;;;20.80;19.57;;;;;;;16.49;100.00;102695.41;1991804;71;32847;-77
2022/08/06 22:51:17;;;;;;;20.47;19.37;;;;;;;15.80;100.00;102694.45;2041290;69;32638;-77
2022/08/06 22:57:03;;;;;;;20.57;19.20;;;;;;;16.35;100.00;102704.93;2013772;71;33287;-78
2022/08/06 23:02:48;;;;;;;18.10;16.90;;;;;;;16.27;100.00;102690.06;2002767;71;32782;-78
2022/08/06 23:08:33;;;;;;;16.63;15.53;;;;;;;16.75;100.00;102689.55;2014995;71;33327;-78
2022/08/06 23:14:18;;;;;;;16.63;15.50;;;;;;;16.51;100.00;102688.41;2004251;71;32913;-78
2022/08/06 23:20:04;;;;;;;17.17;15.87;;;;;;;16.27;100.00;102688.66;2004453;71;32835;-78
2022/08/06 23:25:48;;;;;;;17.73;16.73;;;;;;;16.43;100.00;102690.34;2015120;71;32979;-77
2022/08/06 23:31:31;;;;;;;24.17;22.47;;;;;;;15.82;100.00;102703.44;2013287;71;30893;-77
2022/08/06 23:37:16;;;;;;;22.90;21.60;;;;;;;15.63;100.00;102703.64;1995340;71;32920;-78
2022/08/06 23:42:59;;;;;;;19.63;18.37;;;;;;;15.93;100.00;102691.13;2004363;71;32834;-77
2022/08/06 23:51:49;;;;;;;22.60;21.27;;;;;;;15.85;100.00;102688.31;2031370;69;32637;-77
2022/08/06 23:57:34;;;;;;;26.47;24.60;;;;;;;16.08;100.00;102683.33;2004664;71;32766;-76
